sensor_id;sensor_type;location;lat;lon;timestamp;P1;durP1;ratioP1;P2;durP2;ratioP2
52494;SDS011;38405;53.212;5.660;2023-04-09T00:02:15;41.03;;;28.05;;
52494;SDS011;38405;53.212;5.660;2023-04-09T00:04:40;46.92;;;28.05;;
52494;SDS011;38405;53.212;5.660;2023-04-09T00:07:06;40.90;;;29.30;;
52494;SDS011;38405;53.212;5.660;2023-04-09T00:09:32;41.55;;;29.73;;
52494;SDS011;38405;53.212;5.660;2023-04-09T00:11:57;43.10;;;29.70;;
52494;SDS011;38405;53.212;5.660;2023-04-09T00:14:23;40.53;;;27.60;;
52494;SDS011;38405;53.212;5.660;2023-04-09T00:16:49;43.17;;;27.35;;
52494;SDS011;38405;53.212;5.660;2023-04-09T00:19:15;42.40;;;28.65;;
52494;SDS011;38405;53.212;5.660;2023-04-09T00:21:40;43.72;;;28.08;;
52494;SDS011;38405;53.212;5.660;2023-04-09T00:24:06;42.88;;;28.85;;
52494;SDS011;38405;53.212;5.660;2023-04-09T00:26:32;42.47;;;28.42;;
52494;SDS011;38405;53.212;5.660;2023-04-09T00:28:58;44.13;;;30.88;;
52494;SDS011;38405;53.212;5.660;2023-04-09T00:31:24;42.53;;;29.85;;
52494;SDS011;38405;53.212;5.660;2023-04-09T00:33:50;42.72;;;29.20;;
52494;SDS011;38405;53.212;5.660;2023-04-09T00:36:15;41.53;;;30.13;;
52494;SDS011;38405;53.212;5.660;2023-04-09T00:38:41;45.20;;;30.17;;
52494;SDS011;38405;53.212;5.660;2023-04-09T00:41:07;44.50;;;28.98;;
52494;SDS011;38405;53.212;5.660;2023-04-09T00:43:32;43.50;;;28.92;;
52494;SDS011;38405;53.212;5.660;2023-04-09T00:45:58;48.28;;;30.63;;
52494;SDS011;38405;53.212;5.660;2023-04-09T00:48:24;46.47;;;31.42;;
52494;SDS011;38405;53.212;5.660;2023-04-09T00:50:51;45.38;;;31.83;;
52494;SDS011;38405;53.212;5.660;2023-04-09T00:53:17;48.90;;;32.25;;
52494;SDS011;38405;53.212;5.660;2023-04-09T00:55:44;50.35;;;33.67;;
52494;SDS011;38405;53.212;5.660;2023-04-09T00:58:10;50.25;;;34.25;;
52494;SDS011;38405;53.212;5.660;2023-04-09T01:00:36;50.72;;;33.22;;
52494;SDS011;38405;53.212;5.660;2023-04-09T01:03:01;53.50;;;33.85;;
52494;SDS011;38405;53.212;5.660;2023-04-09T01:05:37;58.13;;;34.38;;
52494;SDS011;38405;53.212;5.660;2023-04-09T01:14:11;49.45;;;32.30;;
52494;SDS011;38405;53.212;5.660;2023-04-09T01:16:46;57.03;;;35.08;;
52494;SDS011;38405;53.212;5.660;2023-04-09T01:21:52;57.08;;;35.58;;
52494;SDS011;38405;53.212;5.660;2023-04-09T01:24:30;56.70;;;36.00;;
52494;SDS011;38405;53.212;5.660;2023-04-09T01:27:16;55.10;;;37.70;;
52494;SDS011;38405;53.212;5.660;2023-04-09T01:29:46;65.25;;;39.13;;
52494;SDS011;38405;53.212;5.660;2023-04-09T01:32:15;60.22;;;39.50;;
52494;SDS011;38405;53.212;5.660;2023-04-09T01:34:43;60.92;;;39.20;;
52494;SDS011;38405;53.212;5.660;2023-04-09T01:37:11;58.63;;;38.45;;
52494;SDS011;38405;53.212;5.660;2023-04-09T01:39:40;61.47;;;37.83;;
52494;SDS011;38405;53.212;5.660;2023-04-09T01:42:06;57.05;;;37.70;;
52494;SDS011;38405;53.212;5.660;2023-04-09T01:44:35;60.72;;;36.47;;
52494;SDS011;38405;53.212;5.660;2023-04-09T01:47:03;54.72;;;35.90;;
52494;SDS011;38405;53.212;5.660;2023-04-09T01:49:31;54.55;;;36.13;;
52494;SDS011;38405;53.212;5.660;2023-04-09T01:51:57;57.33;;;38.22;;
52494;SDS011;38405;53.212;5.660;2023-04-09T01:54:23;58.13;;;37.85;;
52494;SDS011;38405;53.212;5.660;2023-04-09T01:56:49;56.47;;;36.17;;
52494;SDS011;38405;53.212;5.660;2023-04-09T01:59:15;54.00;;;35.65;;
52494;SDS011;38405;53.212;5.660;2023-04-09T02:01:44;66.00;;;39.15;;
52494;SDS011;38405;53.212;5.660;2023-04-09T02:04:19;57.88;;;35.53;;
52494;SDS011;38405;53.212;5.660;2023-04-09T02:09:53;49.85;;;34.35;;
52494;SDS011;38405;53.212;5.660;2023-04-09T02:12:21;58.80;;;37.63;;
52494;SDS011;38405;53.212;5.660;2023-04-09T02:14:50;53.63;;;35.58;;
52494;SDS011;38405;53.212;5.660;2023-04-09T02:17:16;54.38;;;34.13;;
52494;SDS011;38405;53.212;5.660;2023-04-09T02:19:43;58.80;;;37.10;;
52494;SDS011;38405;53.212;5.660;2023-04-09T02:22:10;57.65;;;36.35;;
52494;SDS011;38405;53.212;5.660;2023-04-09T02:24:36;57.17;;;35.47;;
52494;SDS011;38405;53.212;5.660;2023-04-09T02:27:02;51.08;;;33.38;;
52494;SDS011;38405;53.212;5.660;2023-04-09T02:29:30;53.80;;;34.80;;
52494;SDS011;38405;53.212;5.660;2023-04-09T02:31:55;55.92;;;35.90;;
52494;SDS011;38405;53.212;5.660;2023-04-09T02:34:21;55.38;;;36.90;;
52494;SDS011;38405;53.212;5.660;2023-04-09T02:36:47;51.63;;;34.45;;
52494;SDS011;38405;53.212;5.660;2023-04-09T02:39:13;59.78;;;35.15;;
52494;SDS011;38405;53.212;5.660;2023-04-09T02:41:38;59.42;;;37.08;;
52494;SDS011;38405;53.212;5.660;2023-04-09T02:44:04;56.08;;;37.08;;
52494;SDS011;38405;53.212;5.660;2023-04-09T02:46:30;59.13;;;37.17;;
52494;SDS011;38405;53.212;5.660;2023-04-09T02:48:55;59.78;;;36.95;;
52494;SDS011;38405;53.212;5.660;2023-04-09T02:51:21;54.55;;;34.58;;
52494;SDS011;38405;53.212;5.660;2023-04-09T02:53:47;56.53;;;34.78;;
52494;SDS011;38405;53.212;5.660;2023-04-09T02:56:12;63.28;;;37.08;;
52494;SDS011;38405;53.212;5.660;2023-04-09T02:58:38;56.42;;;35.30;;
52494;SDS011;38405;53.212;5.660;2023-04-09T03:01:03;58.58;;;36.08;;
52494;SDS011;38405;53.212;5.660;2023-04-09T03:03:29;56.20;;;35.38;;
52494;SDS011;38405;53.212;5.660;2023-04-09T03:05:55;53.08;;;34.13;;
52494;SDS011;38405;53.212;5.660;2023-04-09T03:08:21;62.47;;;36.60;;
52494;SDS011;38405;53.212;5.660;2023-04-09T03:10:46;60.33;;;35.28;;
52494;SDS011;38405;53.212;5.660;2023-04-09T03:13:12;64.15;;;35.33;;
52494;SDS011;38405;53.212;5.660;2023-04-09T03:15:38;71.50;;;39.50;;
52494;SDS011;38405;53.212;5.660;2023-04-09T03:18:04;67.07;;;38.28;;
52494;SDS011;38405;53.212;5.660;2023-04-09T03:20:29;67.50;;;37.47;;
52494;SDS011;38405;53.212;5.660;2023-04-09T03:22:55;71.82;;;38.15;;
52494;SDS011;38405;53.212;5.660;2023-04-09T03:25:21;68.15;;;39.33;;
52494;SDS011;38405;53.212;5.660;2023-04-09T03:27:47;68.88;;;37.03;;
52494;SDS011;38405;53.212;5.660;2023-04-09T03:30:12;78.22;;;41.08;;
52494;SDS011;38405;53.212;5.660;2023-04-09T03:32:38;74.93;;;40.95;;
52494;SDS011;38405;53.212;5.660;2023-04-09T03:35:03;69.05;;;37.30;;
52494;SDS011;38405;53.212;5.660;2023-04-09T03:37:29;71.50;;;38.00;;
52494;SDS011;38405;53.212;5.660;2023-04-09T03:39:55;73.30;;;39.65;;
52494;SDS011;38405;53.212;5.660;2023-04-09T03:42:21;68.53;;;38.85;;
52494;SDS011;38405;53.212;5.660;2023-04-09T03:44:46;74.70;;;41.63;;
52494;SDS011;38405;53.212;5.660;2023-04-09T03:47:12;78.22;;;39.40;;
52494;SDS011;38405;53.212;5.660;2023-04-09T03:49:37;73.95;;;39.72;;
52494;SDS011;38405;53.212;5.660;2023-04-09T03:52:04;74.80;;;40.95;;
52494;SDS011;38405;53.212;5.660;2023-04-09T03:54:31;77.57;;;39.38;;
52494;SDS011;38405;53.212;5.660;2023-04-09T03:56:56;71.60;;;38.33;;
52494;SDS011;38405;53.212;5.660;2023-04-09T03:59:22;70.00;;;38.60;;
52494;SDS011;38405;53.212;5.660;2023-04-09T04:01:48;76.65;;;38.38;;
52494;SDS011;38405;53.212;5.660;2023-04-09T04:04:14;70.72;;;38.00;;
52494;SDS011;38405;53.212;5.660;2023-04-09T04:06:40;74.30;;;39.28;;
52494;SDS011;38405;53.212;5.660;2023-04-09T04:09:05;71.50;;;38.00;;
52494;SDS011;38405;53.212;5.660;2023-04-09T04:11:31;79.43;;;40.88;;
52494;SDS011;38405;53.212;5.660;2023-04-09T04:13:56;73.85;;;40.08;;
52494;SDS011;38405;53.212;5.660;2023-04-09T04:16:22;79.95;;;39.03;;
52494;SDS011;38405;53.212;5.660;2023-04-09T04:18:48;73.70;;;38.05;;
52494;SDS011;38405;53.212;5.660;2023-04-09T04:21:14;69.25;;;37.33;;
52494;SDS011;38405;53.212;5.660;2023-04-09T04:23:40;75.47;;;38.80;;
52494;SDS011;38405;53.212;5.660;2023-04-09T04:26:09;67.55;;;35.60;;
52494;SDS011;38405;53.212;5.660;2023-04-09T04:28:36;72.32;;;37.70;;
52494;SDS011;38405;53.212;5.660;2023-04-09T04:31:02;70.38;;;38.42;;
52494;SDS011;38405;53.212;5.660;2023-04-09T04:33:31;65.80;;;36.13;;
52494;SDS011;38405;53.212;5.660;2023-04-09T04:36:30;67.00;;;34.92;;
52494;SDS011;38405;53.212;5.660;2023-04-09T04:38:50;64.47;;;35.47;;
52494;SDS011;38405;53.212;5.660;2023-04-09T04:41:15;70.72;;;37.40;;
52494;SDS011;38405;53.212;5.660;2023-04-09T04:43:41;64.00;;;34.95;;
52494;SDS011;38405;53.212;5.660;2023-04-09T04:46:06;62.47;;;33.55;;
52494;SDS011;38405;53.212;5.660;2023-04-09T04:48:32;65.20;;;35.58;;
52494;SDS011;38405;53.212;5.660;2023-04-09T04:50:59;65.88;;;34.53;;
52494;SDS011;38405;53.212;5.660;2023-04-09T04:53:25;68.20;;;35.65;;
52494;SDS011;38405;53.212;5.660;2023-04-09T04:55:51;55.90;;;33.10;;
52494;SDS011;38405;53.212;5.660;2023-04-09T04:58:17;67.53;;;32.58;;
52494;SDS011;38405;53.212;5.660;2023-04-09T05:00:43;60.33;;;32.35;;
52494;SDS011;38405;53.212;5.660;2023-04-09T05:03:09;62.42;;;33.10;;
52494;SDS011;38405;53.212;5.660;2023-04-09T05:05:35;57.05;;;31.05;;
52494;SDS011;38405;53.212;5.660;2023-04-09T05:08:00;59.33;;;30.50;;
52494;SDS011;38405;53.212;5.660;2023-04-09T05:10:26;58.72;;;31.27;;
52494;SDS011;38405;53.212;5.660;2023-04-09T05:12:52;57.42;;;30.73;;
52494;SDS011;38405;53.212;5.660;2023-04-09T05:15:17;57.60;;;30.48;;
52494;SDS011;38405;53.212;5.660;2023-04-09T05:17:43;54.78;;;28.30;;
52494;SDS011;38405;53.212;5.660;2023-04-09T05:20:09;57.17;;;29.05;;
52494;SDS011;38405;53.212;5.660;2023-04-09T05:22:35;52.05;;;28.60;;
52494;SDS011;38405;53.212;5.660;2023-04-09T05:25:01;57.83;;;30.77;;
52494;SDS011;38405;53.212;5.660;2023-04-09T05:27:27;55.10;;;28.48;;
52494;SDS011;38405;53.212;5.660;2023-04-09T05:29:53;54.97;;;28.25;;
52494;SDS011;38405;53.212;5.660;2023-04-09T05:32:18;54.08;;;28.45;;
52494;SDS011;38405;53.212;5.660;2023-04-09T05:34:44;53.22;;;30.15;;
52494;SDS011;38405;53.212;5.660;2023-04-09T05:37:10;56.63;;;29.17;;
52494;SDS011;38405;53.212;5.660;2023-04-09T05:39:35;54.35;;;29.15;;
52494;SDS011;38405;53.212;5.660;2023-04-09T05:42:01;52.13;;;29.45;;
52494;SDS011;38405;53.212;5.660;2023-04-09T05:44:27;52.47;;;28.80;;
52494;SDS011;38405;53.212;5.660;2023-04-09T05:46:52;50.65;;;28.20;;
52494;SDS011;38405;53.212;5.660;2023-04-09T05:49:18;52.60;;;28.80;;
52494;SDS011;38405;53.212;5.660;2023-04-09T05:51:43;52.10;;;28.50;;
52494;SDS011;38405;53.212;5.660;2023-04-09T05:54:09;49.75;;;27.77;;
52494;SDS011;38405;53.212;5.660;2023-04-09T05:56:35;50.65;;;28.95;;
52494;SDS011;38405;53.212;5.660;2023-04-09T05:59:00;48.40;;;28.45;;
52494;SDS011;38405;53.212;5.660;2023-04-09T06:01:26;54.28;;;28.15;;
52494;SDS011;38405;53.212;5.660;2023-04-09T06:03:53;51.42;;;29.50;;
52494;SDS011;38405;53.212;5.660;2023-04-09T06:06:19;55.50;;;27.88;;
52494;SDS011;38405;53.212;5.660;2023-04-09T06:08:45;50.47;;;27.42;;
52494;SDS011;38405;53.212;5.660;2023-04-09T06:11:11;42.75;;;26.42;;
52494;SDS011;38405;53.212;5.660;2023-04-09T06:13:37;53.47;;;28.60;;
52494;SDS011;38405;53.212;5.660;2023-04-09T06:16:06;46.63;;;27.30;;
52494;SDS011;38405;53.212;5.660;2023-04-09T06:18:32;45.95;;;26.40;;
52494;SDS011;38405;53.212;5.660;2023-04-09T06:21:05;45.45;;;26.45;;
52494;SDS011;38405;53.212;5.660;2023-04-09T06:23:33;48.17;;;24.67;;
52494;SDS011;38405;53.212;5.660;2023-04-09T06:25:59;42.30;;;24.08;;
52494;SDS011;38405;53.212;5.660;2023-04-09T06:28:27;42.80;;;25.35;;
52494;SDS011;38405;53.212;5.660;2023-04-09T06:30:53;44.83;;;25.90;;
52494;SDS011;38405;53.212;5.660;2023-04-09T06:33:19;44.95;;;25.55;;
52494;SDS011;38405;53.212;5.660;2023-04-09T06:35:45;44.55;;;25.60;;
52494;SDS011;38405;53.212;5.660;2023-04-09T06:38:11;44.13;;;24.08;;
52494;SDS011;38405;53.212;5.660;2023-04-09T06:40:37;46.40;;;24.65;;
52494;SDS011;38405;53.212;5.660;2023-04-09T06:43:03;39.17;;;24.10;;
52494;SDS011;38405;53.212;5.660;2023-04-09T06:45:30;42.17;;;24.63;;
52494;SDS011;38405;53.212;5.660;2023-04-09T06:47:56;41.45;;;24.65;;
52494;SDS011;38405;53.212;5.660;2023-04-09T06:50:22;39.25;;;24.10;;
52494;SDS011;38405;53.212;5.660;2023-04-09T06:52:48;39.85;;;23.77;;
52494;SDS011;38405;53.212;5.660;2023-04-09T06:55:14;42.75;;;25.23;;
52494;SDS011;38405;53.212;5.660;2023-04-09T06:57:40;40.70;;;24.33;;
52494;SDS011;38405;53.212;5.660;2023-04-09T07:00:06;38.88;;;23.65;;
52494;SDS011;38405;53.212;5.660;2023-04-09T07:02:32;39.75;;;23.63;;
52494;SDS011;38405;53.212;5.660;2023-04-09T07:04:58;40.50;;;23.88;;
52494;SDS011;38405;53.212;5.660;2023-04-09T07:07:24;36.47;;;23.23;;
52494;SDS011;38405;53.212;5.660;2023-04-09T07:09:51;39.88;;;24.42;;
52494;SDS011;38405;53.212;5.660;2023-04-09T07:12:27;40.05;;;25.48;;
52494;SDS011;38405;53.212;5.660;2023-04-09T07:14:56;39.30;;;24.25;;
52494;SDS011;38405;53.212;5.660;2023-04-09T07:17:23;40.15;;;24.77;;
52494;SDS011;38405;53.212;5.660;2023-04-09T07:19:48;40.30;;;24.63;;
52494;SDS011;38405;53.212;5.660;2023-04-09T07:22:15;38.63;;;23.67;;
52494;SDS011;38405;53.212;5.660;2023-04-09T07:24:41;39.97;;;24.75;;
52494;SDS011;38405;53.212;5.660;2023-04-09T07:27:07;40.15;;;24.35;;
52494;SDS011;38405;53.212;5.660;2023-04-09T07:29:33;38.13;;;23.58;;
52494;SDS011;38405;53.212;5.660;2023-04-09T07:31:59;35.58;;;23.02;;
52494;SDS011;38405;53.212;5.660;2023-04-09T07:34:26;39.08;;;22.15;;
52494;SDS011;38405;53.212;5.660;2023-04-09T07:36:52;42.53;;;25.20;;
52494;SDS011;38405;53.212;5.660;2023-04-09T07:39:18;42.83;;;23.65;;
52494;SDS011;38405;53.212;5.660;2023-04-09T07:41:45;40.40;;;23.58;;
52494;SDS011;38405;53.212;5.660;2023-04-09T07:44:11;39.10;;;22.83;;
52494;SDS011;38405;53.212;5.660;2023-04-09T07:46:37;39.08;;;24.23;;
52494;SDS011;38405;53.212;5.660;2023-04-09T07:49:03;38.33;;;23.40;;
52494;SDS011;38405;53.212;5.660;2023-04-09T07:51:30;39.38;;;24.77;;
52494;SDS011;38405;53.212;5.660;2023-04-09T07:53:55;42.78;;;24.30;;
52494;SDS011;38405;53.212;5.660;2023-04-09T07:56:21;37.28;;;23.92;;
52494;SDS011;38405;53.212;5.660;2023-04-09T07:58:47;35.15;;;23.20;;
52494;SDS011;38405;53.212;5.660;2023-04-09T08:01:15;39.05;;;24.52;;
52494;SDS011;38405;53.212;5.660;2023-04-09T08:03:41;32.45;;;22.63;;
52494;SDS011;38405;53.212;5.660;2023-04-09T08:06:07;33.95;;;22.75;;
52494;SDS011;38405;53.212;5.660;2023-04-09T08:08:33;37.22;;;22.90;;
52494;SDS011;38405;53.212;5.660;2023-04-09T08:10:59;42.13;;;26.08;;
52494;SDS011;38405;53.212;5.660;2023-04-09T08:13:25;37.58;;;23.95;;
52494;SDS011;38405;53.212;5.660;2023-04-09T08:15:51;34.28;;;23.00;;
52494;SDS011;38405;53.212;5.660;2023-04-09T08:18:17;36.83;;;23.27;;
52494;SDS011;38405;53.212;5.660;2023-04-09T08:20:42;38.95;;;24.20;;
52494;SDS011;38405;53.212;5.660;2023-04-09T08:23:12;40.15;;;24.30;;
52494;SDS011;38405;53.212;5.660;2023-04-09T08:25:38;39.10;;;24.35;;
52494;SDS011;38405;53.212;5.660;2023-04-09T08:28:03;37.85;;;24.42;;
52494;SDS011;38405;53.212;5.660;2023-04-09T08:30:29;37.22;;;25.17;;
52494;SDS011;38405;53.212;5.660;2023-04-09T08:32:58;40.53;;;25.42;;
52494;SDS011;38405;53.212;5.660;2023-04-09T08:35:24;42.22;;;25.95;;
52494;SDS011;38405;53.212;5.660;2023-04-09T08:37:50;42.20;;;25.35;;
52494;SDS011;38405;53.212;5.660;2023-04-09T08:40:16;41.42;;;23.58;;
52494;SDS011;38405;53.212;5.660;2023-04-09T08:42:42;40.72;;;25.80;;
52494;SDS011;38405;53.212;5.660;2023-04-09T08:45:11;39.35;;;23.65;;
52494;SDS011;38405;53.212;5.660;2023-04-09T08:47:38;37.40;;;23.58;;
52494;SDS011;38405;53.212;5.660;2023-04-09T08:50:06;46.88;;;27.02;;
52494;SDS011;38405;53.212;5.660;2023-04-09T08:52:32;43.42;;;25.75;;
52494;SDS011;38405;53.212;5.660;2023-04-09T08:54:59;39.10;;;24.83;;
52494;SDS011;38405;53.212;5.660;2023-04-09T08:57:25;43.10;;;25.15;;
52494;SDS011;38405;53.212;5.660;2023-04-09T08:59:51;41.92;;;25.85;;
52494;SDS011;38405;53.212;5.660;2023-04-09T09:02:16;42.08;;;25.23;;
52494;SDS011;38405;53.212;5.660;2023-04-09T09:04:46;47.55;;;26.75;;
52494;SDS011;38405;53.212;5.660;2023-04-09T09:07:12;44.47;;;26.67;;
52494;SDS011;38405;53.212;5.660;2023-04-09T09:09:52;42.20;;;26.75;;
52494;SDS011;38405;53.212;5.660;2023-04-09T09:15:25;41.95;;;26.30;;
52494;SDS011;38405;53.212;5.660;2023-04-09T09:17:53;42.25;;;25.48;;
52494;SDS011;38405;53.212;5.660;2023-04-09T09:20:20;42.60;;;25.70;;
52494;SDS011;38405;53.212;5.660;2023-04-09T09:22:51;45.10;;;26.25;;
52494;SDS011;38405;53.212;5.660;2023-04-09T09:25:18;41.25;;;24.42;;
52494;SDS011;38405;53.212;5.660;2023-04-09T09:27:47;47.65;;;24.73;;
52494;SDS011;38405;53.212;5.660;2023-04-09T09:30:23;47.95;;;26.70;;
52494;SDS011;38405;53.212;5.660;2023-04-09T09:32:50;43.30;;;26.33;;
52494;SDS011;38405;53.212;5.660;2023-04-09T09:35:49;46.22;;;25.98;;
52494;SDS011;38405;53.212;5.660;2023-04-09T09:38:16;43.97;;;25.00;;
52494;SDS011;38405;53.212;5.660;2023-04-09T09:40:42;45.53;;;24.35;;
52494;SDS011;38405;53.212;5.660;2023-04-09T09:43:08;47.90;;;27.08;;
52494;SDS011;38405;53.212;5.660;2023-04-09T09:45:35;46.17;;;27.42;;
52494;SDS011;38405;53.212;5.660;2023-04-09T09:48:03;48.20;;;27.02;;
52494;SDS011;38405;53.212;5.660;2023-04-09T09:50:29;48.47;;;27.42;;
52494;SDS011;38405;53.212;5.660;2023-04-09T09:53:06;43.65;;;26.92;;
52494;SDS011;38405;53.212;5.660;2023-04-09T09:55:35;42.55;;;26.70;;
52494;SDS011;38405;53.212;5.660;2023-04-09T09:58:07;47.25;;;26.10;;
52494;SDS011;38405;53.212;5.660;2023-04-09T10:00:36;39.90;;;24.67;;
52494;SDS011;38405;53.212;5.660;2023-04-09T10:03:14;45.72;;;28.83;;
52494;SDS011;38405;53.212;5.660;2023-04-09T10:05:45;52.75;;;29.75;;
52494;SDS011;38405;53.212;5.660;2023-04-09T10:08:13;51.97;;;29.10;;
52494;SDS011;38405;53.212;5.660;2023-04-09T10:10:39;46.13;;;28.73;;
52494;SDS011;38405;53.212;5.660;2023-04-09T10:13:12;46.67;;;28.67;;
52494;SDS011;38405;53.212;5.660;2023-04-09T10:15:42;49.42;;;28.25;;
52494;SDS011;38405;53.212;5.660;2023-04-09T10:18:09;47.25;;;27.92;;
52494;SDS011;38405;53.212;5.660;2023-04-09T10:20:42;45.53;;;27.40;;
52494;SDS011;38405;53.212;5.660;2023-04-09T10:23:18;47.45;;;28.02;;
52494;SDS011;38405;53.212;5.660;2023-04-09T10:25:51;44.30;;;27.75;;
52494;SDS011;38405;53.212;5.660;2023-04-09T10:28:17;42.70;;;26.98;;
52494;SDS011;38405;53.212;5.660;2023-04-09T10:30:43;49.38;;;28.20;;
52494;SDS011;38405;53.212;5.660;2023-04-09T10:33:13;43.58;;;28.30;;
52494;SDS011;38405;53.212;5.660;2023-04-09T10:35:40;43.97;;;28.25;;
52494;SDS011;38405;53.212;5.660;2023-04-09T10:38:08;45.28;;;28.15;;
52494;SDS011;38405;53.212;5.660;2023-04-09T10:40:39;51.00;;;29.95;;
52494;SDS011;38405;53.212;5.660;2023-04-09T10:43:16;49.55;;;29.85;;
52494;SDS011;38405;53.212;5.660;2023-04-09T10:45:44;45.95;;;28.20;;
52494;SDS011;38405;53.212;5.660;2023-04-09T10:48:12;44.33;;;27.10;;
52494;SDS011;38405;53.212;5.660;2023-04-09T10:50:38;41.42;;;26.77;;
52494;SDS011;38405;53.212;5.660;2023-04-09T10:53:19;41.30;;;26.17;;
52494;SDS011;38405;53.212;5.660;2023-04-09T10:55:47;42.08;;;27.35;;
52494;SDS011;38405;53.212;5.660;2023-04-09T10:58:15;38.67;;;25.45;;
52494;SDS011;38405;53.212;5.660;2023-04-09T11:00:41;36.17;;;24.73;;
52494;SDS011;38405;53.212;5.660;2023-04-09T11:05:53;38.97;;;24.35;;
52494;SDS011;38405;53.212;5.660;2023-04-09T11:08:27;35.17;;;23.70;;
52494;SDS011;38405;53.212;5.660;2023-04-09T11:10:55;33.55;;;23.15;;
52494;SDS011;38405;53.212;5.660;2023-04-09T11:13:23;36.90;;;22.83;;
52494;SDS011;38405;53.212;5.660;2023-04-09T11:15:49;34.97;;;23.73;;
52494;SDS011;38405;53.212;5.660;2023-04-09T11:18:18;38.22;;;24.13;;
52494;SDS011;38405;53.212;5.660;2023-04-09T11:20:45;36.10;;;23.95;;
52494;SDS011;38405;53.212;5.660;2023-04-09T11:23:11;41.97;;;24.45;;
52494;SDS011;38405;53.212;5.660;2023-04-09T11:25:37;36.90;;;24.20;;
52494;SDS011;38405;53.212;5.660;2023-04-09T11:28:03;37.80;;;24.25;;
52494;SDS011;38405;53.212;5.660;2023-04-09T11:30:30;36.38;;;23.73;;
52494;SDS011;38405;53.212;5.660;2023-04-09T11:32:58;36.83;;;23.48;;
52494;SDS011;38405;53.212;5.660;2023-04-09T11:35:27;38.97;;;23.77;;
52494;SDS011;38405;53.212;5.660;2023-04-09T11:37:53;35.35;;;24.00;;
52494;SDS011;38405;53.212;5.660;2023-04-09T11:40:20;35.42;;;23.40;;
52494;SDS011;38405;53.212;5.660;2023-04-09T11:42:50;35.20;;;23.23;;
52494;SDS011;38405;53.212;5.660;2023-04-09T11:45:17;34.65;;;24.17;;
52494;SDS011;38405;53.212;5.660;2023-04-09T11:47:44;36.13;;;23.80;;
52494;SDS011;38405;53.212;5.660;2023-04-09T11:50:11;35.97;;;23.30;;
52494;SDS011;38405;53.212;5.660;2023-04-09T11:52:38;36.53;;;23.52;;
52494;SDS011;38405;53.212;5.660;2023-04-09T11:55:05;34.67;;;22.77;;
52494;SDS011;38405;53.212;5.660;2023-04-09T11:57:39;35.95;;;24.35;;
52494;SDS011;38405;53.212;5.660;2023-04-09T12:00:12;32.33;;;23.08;;
52494;SDS011;38405;53.212;5.660;2023-04-09T12:05:10;35.15;;;23.95;;
52494;SDS011;38405;53.212;5.660;2023-04-09T12:07:44;34.35;;;24.13;;
52494;SDS011;38405;53.212;5.660;2023-04-09T12:10:10;31.45;;;22.73;;
52494;SDS011;38405;53.212;5.660;2023-04-09T12:12:42;32.47;;;21.77;;
52494;SDS011;38405;53.212;5.660;2023-04-09T12:15:17;32.17;;;23.23;;
52494;SDS011;38405;53.212;5.660;2023-04-09T12:17:45;34.58;;;24.98;;
52494;SDS011;38405;53.212;5.660;2023-04-09T12:20:12;34.63;;;23.02;;
52494;SDS011;38405;53.212;5.660;2023-04-09T12:22:38;34.35;;;23.60;;
52494;SDS011;38405;53.212;5.660;2023-04-09T12:25:05;31.17;;;22.77;;
52494;SDS011;38405;53.212;5.660;2023-04-09T12:27:32;31.35;;;22.98;;
52494;SDS011;38405;53.212;5.660;2023-04-09T12:29:58;32.63;;;22.52;;
52494;SDS011;38405;53.212;5.660;2023-04-09T12:32:23;30.00;;;21.73;;
52494;SDS011;38405;53.212;5.660;2023-04-09T12:34:49;29.52;;;21.48;;
52494;SDS011;38405;53.212;5.660;2023-04-09T12:37:14;31.05;;;21.92;;
52494;SDS011;38405;53.212;5.660;2023-04-09T12:39:40;31.60;;;22.90;;
52494;SDS011;38405;53.212;5.660;2023-04-09T12:42:06;32.78;;;23.13;;
52494;SDS011;38405;53.212;5.660;2023-04-09T12:44:31;32.00;;;22.80;;
52494;SDS011;38405;53.212;5.660;2023-04-09T12:46:57;30.50;;;22.52;;
52494;SDS011;38405;53.212;5.660;2023-04-09T12:49:23;32.00;;;22.80;;
52494;SDS011;38405;53.212;5.660;2023-04-09T12:51:49;29.75;;;22.35;;
52494;SDS011;38405;53.212;5.660;2023-04-09T12:54:15;28.92;;;21.45;;
52494;SDS011;38405;53.212;5.660;2023-04-09T12:56:41;29.88;;;21.90;;
52494;SDS011;38405;53.212;5.660;2023-04-09T12:59:07;31.73;;;22.80;;
52494;SDS011;38405;53.212;5.660;2023-04-09T13:01:32;31.58;;;21.45;;
52494;SDS011;38405;53.212;5.660;2023-04-09T13:03:58;26.88;;;20.42;;
52494;SDS011;38405;53.212;5.660;2023-04-09T13:06:23;27.65;;;20.95;;
52494;SDS011;38405;53.212;5.660;2023-04-09T13:08:49;28.33;;;20.50;;
52494;SDS011;38405;53.212;5.660;2023-04-09T13:11:15;27.83;;;20.80;;
52494;SDS011;38405;53.212;5.660;2023-04-09T13:13:40;27.33;;;20.58;;
52494;SDS011;38405;53.212;5.660;2023-04-09T13:16:06;26.00;;;20.13;;
52494;SDS011;38405;53.212;5.660;2023-04-09T13:18:33;29.42;;;20.15;;
52494;SDS011;38405;53.212;5.660;2023-04-09T13:20:58;26.35;;;20.45;;
52494;SDS011;38405;53.212;5.660;2023-04-09T13:23:24;30.77;;;20.92;;
52494;SDS011;38405;53.212;5.660;2023-04-09T13:25:50;29.65;;;21.73;;
52494;SDS011;38405;53.212;5.660;2023-04-09T13:28:15;27.63;;;19.80;;
52494;SDS011;38405;53.212;5.660;2023-04-09T13:30:41;28.55;;;20.35;;
52494;SDS011;38405;53.212;5.660;2023-04-09T13:33:06;26.55;;;20.65;;
52494;SDS011;38405;53.212;5.660;2023-04-09T13:35:32;26.17;;;19.45;;
52494;SDS011;38405;53.212;5.660;2023-04-09T13:37:58;27.50;;;20.73;;
52494;SDS011;38405;53.212;5.660;2023-04-09T13:40:23;32.45;;;19.95;;
52494;SDS011;38405;53.212;5.660;2023-04-09T13:42:49;25.33;;;18.73;;
52494;SDS011;38405;53.212;5.660;2023-04-09T13:45:15;26.23;;;19.52;;
52494;SDS011;38405;53.212;5.660;2023-04-09T13:47:41;26.55;;;19.60;;
52494;SDS011;38405;53.212;5.660;2023-04-09T13:50:07;25.10;;;18.65;;
52494;SDS011;38405;53.212;5.660;2023-04-09T13:52:34;24.17;;;17.70;;
52494;SDS011;38405;53.212;5.660;2023-04-09T13:55:00;26.17;;;19.15;;
52494;SDS011;38405;53.212;5.660;2023-04-09T13:57:27;26.92;;;20.23;;
52494;SDS011;38405;53.212;5.660;2023-04-09T13:59:52;25.63;;;19.92;;
52494;SDS011;38405;53.212;5.660;2023-04-09T14:02:18;24.60;;;18.45;;
52494;SDS011;38405;53.212;5.660;2023-04-09T14:04:44;23.92;;;18.27;;
52494;SDS011;38405;53.212;5.660;2023-04-09T14:07:09;28.23;;;18.88;;
52494;SDS011;38405;53.212;5.660;2023-04-09T14:09:35;23.13;;;18.05;;
52494;SDS011;38405;53.212;5.660;2023-04-09T14:12:01;25.38;;;18.73;;
52494;SDS011;38405;53.212;5.660;2023-04-09T14:14:26;24.45;;;18.30;;
52494;SDS011;38405;53.212;5.660;2023-04-09T14:16:52;25.38;;;18.27;;
52494;SDS011;38405;53.212;5.660;2023-04-09T14:19:18;24.42;;;17.73;;
52494;SDS011;38405;53.212;5.660;2023-04-09T14:21:43;25.55;;;17.83;;
52494;SDS011;38405;53.212;5.660;2023-04-09T14:24:09;24.20;;;18.02;;
52494;SDS011;38405;53.212;5.660;2023-04-09T14:26:35;22.55;;;17.85;;
52494;SDS011;38405;53.212;5.660;2023-04-09T14:29:01;23.65;;;17.98;;
52494;SDS011;38405;53.212;5.660;2023-04-09T14:31:27;24.17;;;18.35;;
52494;SDS011;38405;53.212;5.660;2023-04-09T14:33:52;23.52;;;16.98;;
52494;SDS011;38405;53.212;5.660;2023-04-09T14:36:18;22.60;;;17.02;;
52494;SDS011;38405;53.212;5.660;2023-04-09T14:38:44;24.17;;;17.58;;
52494;SDS011;38405;53.212;5.660;2023-04-09T14:41:13;22.25;;;17.52;;